createdAt,value
2023-04-08T00:00:06.776Z,1.30
2023-04-08T00:02:37.301Z,1.30
2023-04-08T00:05:05.208Z,1.30
2023-04-08T00:07:32.239Z,1.40
2023-04-08T00:09:59.110Z,1.60
2023-04-08T00:12:26.510Z,1.80
2023-04-08T00:14:53.408Z,1.60
2023-04-08T00:17:20.566Z,1.30
2023-04-08T00:19:47.601Z,1.60
2023-04-08T00:22:14.482Z,1.40
2023-04-08T00:24:41.476Z,1.70
2023-04-08T00:27:08.369Z,1.50
2023-04-08T00:29:35.229Z,1.80
2023-04-08T00:32:03.006Z,1.50
2023-04-08T00:34:30.034Z,1.60
2023-04-08T00:36:56.929Z,2.20
2023-04-08T00:39:23.842Z,1.90
2023-04-08T00:41:51.003Z,2.30
2023-04-08T00:44:18.055Z,2.10
2023-04-08T00:46:45.040Z,1.90
2023-04-08T00:49:12.590Z,1.90
2023-04-08T00:51:39.644Z,2.00
2023-04-08T00:54:07.505Z,2.00
2023-04-08T00:56:36.116Z,2.10
2023-04-08T00:59:04.432Z,2.30
2023-04-08T01:01:45.914Z,2.20
2023-04-08T01:04:27.337Z,2.30
2023-04-08T01:07:11.696Z,2.00
2023-04-08T01:09:40.100Z,2.40
2023-04-08T01:12:09.453Z,2.00
2023-04-08T01:14:42.625Z,2.20
2023-04-08T01:17:10.766Z,2.30
2023-04-08T01:19:44.900Z,2.30
2023-04-08T01:22:23.600Z,2.20
2023-04-08T01:25:08.153Z,2.20
2023-04-08T01:27:36.439Z,2.40
2023-04-08T01:30:06.856Z,2.30
2023-04-08T01:32:35.572Z,2.00
2023-04-08T01:35:03.427Z,2.40
2023-04-08T01:37:33.231Z,2.20
2023-04-08T01:40:03.344Z,2.20
2023-04-08T01:42:32.177Z,2.60
2023-04-08T01:44:59.790Z,2.30
2023-04-08T01:47:28.285Z,2.10
2023-04-08T01:49:56.586Z,2.50
2023-04-08T01:52:25.825Z,2.10
2023-04-08T01:54:53.516Z,2.20
2023-04-08T01:57:27.414Z,2.10
2023-04-08T02:00:00.840Z,2.20
2023-04-08T02:02:28.942Z,2.20
2023-04-08T02:04:56.359Z,2.10
2023-04-08T02:07:23.579Z,2.10
2023-04-08T02:09:51.593Z,2.00
2023-04-08T02:12:19.160Z,1.90
2023-04-08T02:14:47.322Z,2.10
2023-04-08T02:17:29.385Z,2.00
2023-04-08T02:19:56.447Z,2.10
2023-04-08T02:22:35.578Z,2.10
2023-04-08T02:25:05.086Z,2.00
2023-04-08T02:27:35.064Z,2.00
2023-04-08T02:30:05.128Z,2.00
2023-04-08T02:32:34.980Z,2.10
2023-04-08T02:35:03.944Z,2.10
2023-04-08T02:37:32.240Z,2.40
2023-04-08T02:39:59.160Z,1.70
2023-04-08T02:42:26.354Z,1.90
2023-04-08T02:44:53.390Z,1.80
2023-04-08T02:47:20.498Z,1.80
2023-04-08T02:49:47.769Z,1.90
2023-04-08T02:52:14.755Z,2.20
2023-04-08T02:54:41.571Z,2.10
2023-04-08T02:57:09.054Z,1.80
2023-04-08T02:59:37.945Z,2.10
2023-04-08T03:02:04.942Z,1.90
2023-04-08T03:04:32.016Z,2.20
2023-04-08T03:06:59.332Z,1.70
2023-04-08T03:09:26.502Z,1.70
2023-04-08T03:11:55.056Z,2.00
2023-04-08T03:14:22.426Z,1.90
2023-04-08T03:16:49.402Z,1.80
2023-04-08T03:19:16.455Z,1.50
2023-04-08T03:21:43.390Z,2.10
2023-04-08T03:24:10.454Z,1.70
2023-04-08T03:26:37.370Z,1.70
2023-04-08T03:29:04.256Z,1.70
2023-04-08T03:31:31.245Z,1.70
2023-04-08T03:33:58.240Z,1.80
2023-04-08T03:36:25.154Z,1.70
2023-04-08T03:38:52.399Z,1.90
2023-04-08T03:41:19.466Z,1.90
2023-04-08T03:43:46.372Z,1.80
2023-04-08T03:46:13.392Z,1.80
2023-04-08T03:48:40.334Z,1.80
2023-04-08T03:51:07.206Z,2.00
2023-04-08T03:53:34.074Z,1.80
2023-04-08T03:56:02.869Z,1.70
2023-04-08T03:58:29.782Z,1.70
2023-04-08T04:00:56.682Z,1.70
2023-04-08T04:03:23.976Z,1.80
2023-04-08T04:05:51.324Z,1.80
2023-04-08T04:08:18.279Z,1.90
2023-04-08T04:10:45.097Z,1.80
2023-04-08T04:13:12.005Z,1.80
2023-04-08T04:15:40.285Z,1.60
2023-04-08T04:18:07.992Z,1.60
2023-04-08T04:20:35.136Z,1.70
2023-04-08T04:23:02.093Z,1.80
2023-04-08T04:25:29.544Z,1.90
2023-04-08T04:27:56.563Z,1.80
2023-04-08T04:30:23.939Z,1.80
2023-04-08T04:32:50.944Z,1.80
2023-04-08T04:35:17.969Z,1.90
2023-04-08T04:37:44.870Z,1.90
2023-04-08T04:40:12.290Z,1.90
2023-04-08T04:42:39.385Z,1.70
2023-04-08T04:45:07.153Z,1.90
2023-04-08T04:47:34.239Z,1.80
2023-04-08T04:50:01.969Z,1.80
2023-04-08T04:52:29.005Z,2.10
2023-04-08T04:54:57.869Z,1.70
2023-04-08T04:57:25.282Z,1.90
2023-04-08T04:59:52.190Z,2.00
2023-04-08T05:02:19.223Z,1.90
2023-04-08T05:04:46.551Z,2.00
2023-04-08T05:07:13.547Z,1.60
2023-04-08T05:09:40.505Z,2.00
2023-04-08T05:12:07.601Z,2.00
2023-04-08T05:14:34.590Z,1.80
2023-04-08T05:17:01.538Z,2.40
2023-04-08T05:19:28.999Z,1.90
2023-04-08T05:21:56.137Z,1.90
2023-04-08T05:24:24.111Z,1.90
2023-04-08T05:26:53.420Z,1.80
2023-04-08T05:29:22.149Z,1.80
2023-04-08T05:31:49.602Z,1.90
2023-04-08T05:34:23.187Z,1.80
2023-04-08T05:36:52.252Z,1.80
2023-04-08T05:39:20.630Z,1.90
2023-04-08T05:41:47.785Z,2.10
2023-04-08T05:44:15.033Z,2.20
2023-04-08T05:46:42.233Z,1.90
2023-04-08T05:49:09.350Z,1.60
2023-04-08T05:51:36.475Z,1.80
2023-04-08T05:54:03.640Z,1.70
2023-04-08T05:56:32.417Z,1.80
2023-04-08T05:58:59.370Z,2.10
2023-04-08T06:01:26.426Z,1.80
2023-04-08T06:03:53.952Z,1.80
2023-04-08T06:06:21.217Z,1.90
2023-04-08T06:08:48.957Z,1.70
2023-04-08T06:11:16.334Z,1.90
2023-04-08T06:13:43.379Z,1.90
2023-04-08T06:16:15.893Z,1.90
2023-04-08T06:18:44.232Z,2.10
2023-04-08T06:21:11.965Z,2.10
2023-04-08T06:23:39.062Z,1.80
2023-04-08T06:26:06.200Z,1.80
2023-04-08T06:28:33.340Z,2.00
2023-04-08T06:31:03.155Z,2.30
2023-04-08T06:33:30.501Z,2.20
2023-04-08T06:36:08.185Z,2.30
2023-04-08T06:38:35.352Z,2.50
2023-04-08T06:41:07.349Z,2.60
2023-04-08T06:43:35.611Z,2.50
2023-04-08T06:46:02.640Z,2.20
2023-04-08T06:48:30.978Z,2.20
2023-04-08T06:50:59.409Z,2.20
2023-04-08T06:53:29.464Z,2.50
2023-04-08T06:55:56.636Z,2.20
2023-04-08T06:58:23.638Z,2.70
2023-04-08T07:00:50.692Z,2.30
2023-04-08T07:03:17.825Z,2.00
2023-04-08T07:05:45.165Z,1.90
2023-04-08T07:08:12.329Z,2.30
2023-04-08T07:10:39.360Z,2.40
2023-04-08T07:13:06.527Z,2.20
2023-04-08T07:15:33.560Z,2.10
2023-04-08T07:18:00.668Z,2.20
2023-04-08T07:20:28.069Z,2.00
2023-04-08T07:22:55.326Z,2.20
2023-04-08T07:25:22.467Z,1.80
2023-04-08T07:27:49.825Z,2.00
2023-04-08T07:30:16.877Z,2.00
2023-04-08T07:32:43.760Z,1.80
2023-04-08T07:35:10.759Z,1.70
2023-04-08T07:37:37.700Z,1.90
2023-04-08T07:40:05.291Z,1.90
2023-04-08T07:42:32.411Z,1.90
2023-04-08T07:44:59.458Z,1.90
2023-04-08T07:47:26.521Z,1.90
2023-04-08T07:49:54.897Z,1.90
2023-04-08T07:52:21.936Z,1.70
2023-04-08T07:54:48.981Z,1.80
2023-04-08T07:57:16.240Z,1.80
2023-04-08T07:59:43.534Z,1.60
2023-04-08T08:02:10.671Z,1.70
2023-04-08T08:04:37.942Z,2.00
2023-04-08T08:07:05.196Z,1.80
2023-04-08T08:09:32.253Z,2.00
2023-04-08T08:11:59.351Z,1.70
2023-04-08T08:14:27.000Z,1.50
2023-04-08T08:16:54.542Z,1.70
2023-04-08T08:19:21.707Z,1.90
2023-04-08T08:21:49.273Z,1.80
2023-04-08T08:24:17.552Z,1.80
2023-04-08T08:26:45.923Z,1.90
2023-04-08T08:29:12.978Z,1.60
2023-04-08T08:31:40.072Z,2.00
2023-04-08T08:34:07.167Z,1.90
2023-04-08T08:36:35.032Z,2.00
2023-04-08T08:39:02.707Z,1.70
2023-04-08T08:41:35.370Z,1.60
2023-04-08T08:44:04.264Z,1.90
2023-04-08T08:46:31.673Z,1.70
2023-04-08T08:48:58.871Z,1.90
2023-04-08T08:51:28.170Z,1.90
2023-04-08T08:53:55.324Z,1.80
2023-04-08T08:56:22.579Z,1.90
2023-04-08T08:58:49.628Z,1.80
2023-04-08T09:01:36.614Z,1.90
2023-04-08T09:04:20.076Z,1.50
2023-04-08T09:07:08.214Z,1.80
2023-04-08T09:09:50.521Z,1.80
2023-04-08T09:12:18.243Z,1.90
2023-04-08T09:14:45.744Z,1.70
2023-04-08T09:17:12.989Z,1.60
2023-04-08T09:19:40.402Z,1.60
2023-04-08T09:22:11.707Z,1.80
2023-04-08T09:24:38.938Z,1.90
2023-04-08T09:27:06.820Z,1.90
2023-04-08T09:29:37.442Z,2.00
2023-04-08T09:32:06.989Z,1.90
2023-04-08T09:34:34.688Z,1.90
2023-04-08T09:37:02.364Z,1.60
2023-04-08T09:39:29.413Z,2.40
2023-04-08T09:42:01.517Z,1.80
2023-04-08T09:44:30.744Z,1.90
2023-04-08T09:47:34.575Z,1.70
2023-04-08T09:50:05.343Z,2.30
2023-04-08T09:52:44.562Z,2.30
2023-04-08T09:55:14.641Z,1.70
2023-04-08T09:57:45.306Z,1.60
2023-04-08T10:00:16.345Z,2.00
2023-04-08T10:02:57.472Z,2.40
2023-04-08T10:05:25.887Z,1.90
2023-04-08T10:07:53.533Z,1.80
2023-04-08T10:10:21.334Z,1.90
2023-04-08T10:12:49.514Z,2.00
2023-04-08T10:15:30.654Z,2.30
2023-04-08T10:18:23.843Z,3.10
2023-04-08T10:20:50.906Z,2.50
2023-04-08T10:23:19.378Z,2.80
2023-04-08T10:25:49.949Z,2.40
2023-04-08T10:28:18.386Z,2.40
2023-04-08T10:30:46.237Z,2.10
2023-04-08T10:33:17.328Z,2.10
2023-04-08T10:35:49.035Z,2.00
2023-04-08T10:38:18.462Z,1.90
2023-04-08T10:40:46.624Z,2.00
2023-04-08T10:43:15.003Z,2.20
2023-04-08T10:45:43.400Z,2.70
2023-04-08T10:48:13.804Z,1.60
2023-04-08T10:50:42.088Z,2.00
2023-04-08T10:53:09.360Z,1.90
2023-04-08T10:55:36.495Z,1.90
2023-04-08T10:58:08.096Z,1.90
2023-04-08T11:00:37.523Z,1.70
2023-04-08T11:03:10.403Z,1.90
2023-04-08T11:05:38.924Z,1.90
2023-04-08T11:08:07.092Z,1.80
2023-04-08T11:10:39.876Z,2.10
2023-04-08T11:13:10.083Z,2.30
2023-04-08T11:15:37.587Z,2.60
2023-04-08T11:18:06.570Z,2.70
2023-04-08T11:20:37.385Z,2.60
2023-04-08T11:23:04.384Z,2.90
2023-04-08T11:25:32.109Z,3.10
2023-04-08T11:28:00.633Z,3.40
2023-04-08T11:30:29.585Z,3.60
2023-04-08T11:32:57.260Z,3.90
2023-04-08T11:35:24.557Z,4.20
2023-04-08T11:37:52.845Z,3.80
2023-04-08T11:40:24.193Z,3.90
2023-04-08T11:42:52.482Z,3.60
2023-04-08T11:45:24.062Z,4.10
2023-04-08T11:47:51.071Z,3.90
2023-04-08T11:50:30.196Z,3.90
2023-04-08T11:52:57.353Z,3.70
2023-04-08T11:55:26.882Z,3.60
2023-04-08T11:57:55.197Z,3.70
2023-04-08T12:00:22.974Z,3.40
2023-04-08T12:02:50.324Z,3.30
2023-04-08T12:05:17.783Z,3.80
2023-04-08T12:07:47.268Z,3.20
2023-04-08T12:10:14.754Z,3.10
2023-04-08T12:12:41.831Z,3.50
2023-04-08T12:15:10.039Z,3.70
2023-04-08T12:17:39.088Z,3.60
2023-04-08T12:20:07.095Z,3.20
2023-04-08T12:22:34.716Z,3.00
2023-04-08T12:25:03.819Z,2.90
2023-04-08T12:27:33.632Z,2.90
2023-04-08T12:30:01.293Z,2.80
2023-04-08T12:32:28.984Z,3.00
2023-04-08T12:34:56.293Z,2.70
2023-04-08T12:37:23.360Z,2.40
2023-04-08T12:39:50.261Z,2.60
2023-04-08T12:42:17.553Z,2.60
2023-04-08T12:44:44.600Z,2.80
2023-04-08T12:47:11.722Z,2.20
2023-04-08T12:52:08.820Z,2.50
2023-04-08T12:54:35.874Z,2.30
2023-04-08T12:57:03.111Z,2.20
2023-04-08T12:59:30.267Z,2.00
2023-04-08T13:01:57.185Z,2.20
2023-04-08T13:04:24.162Z,2.10
2023-04-08T13:06:51.855Z,2.30
2023-04-08T13:09:18.768Z,2.10
2023-04-08T13:11:46.061Z,2.00
2023-04-08T13:14:13.961Z,2.00
2023-04-08T13:16:41.106Z,2.00
2023-04-08T13:19:08.032Z,2.30
2023-04-08T13:21:35.321Z,1.90
2023-04-08T13:24:02.332Z,2.10
2023-04-08T13:26:29.398Z,2.10
2023-04-08T13:28:58.044Z,2.10
2023-04-08T13:31:26.097Z,2.10
2023-04-08T13:33:56.063Z,2.00
2023-04-08T13:36:24.848Z,2.20
2023-04-08T13:38:52.053Z,2.10
2023-04-08T13:41:21.264Z,2.10
2023-04-08T13:43:48.868Z,2.40
2023-04-08T13:46:15.841Z,2.00
2023-04-08T13:48:42.871Z,1.80
2023-04-08T13:51:10.464Z,1.70
2023-04-08T13:53:37.529Z,1.50
2023-04-08T13:56:04.656Z,2.20
2023-04-08T13:58:31.649Z,2.10
2023-04-08T14:00:58.576Z,1.90
2023-04-08T14:03:26.625Z,1.90
2023-04-08T14:05:53.947Z,2.00
2023-04-08T14:08:25.869Z,1.80
2023-04-08T14:10:57.637Z,2.00
2023-04-08T14:13:24.672Z,1.80
2023-04-08T14:15:53.795Z,1.90
2023-04-08T14:18:20.916Z,1.90
2023-04-08T14:20:47.997Z,2.00
2023-04-08T14:23:14.960Z,1.90
2023-04-08T14:25:41.887Z,1.90
2023-04-08T14:28:08.768Z,2.00
2023-04-08T14:30:36.397Z,1.50
2023-04-08T14:33:05.381Z,1.50
2023-04-08T14:35:32.820Z,2.10
2023-04-08T14:38:01.109Z,1.80
2023-04-08T14:40:28.109Z,1.90
2023-04-08T14:42:55.095Z,1.40
2023-04-08T14:45:24.216Z,1.80
2023-04-08T14:47:51.389Z,1.70
2023-04-08T14:50:19.056Z,1.70
2023-04-08T14:52:48.571Z,1.60
2023-04-08T14:55:15.772Z,1.90
2023-04-08T14:57:42.812Z,2.00
2023-04-08T15:00:10.141Z,1.70
2023-04-08T15:02:37.244Z,1.50
2023-04-08T15:05:04.965Z,1.60
2023-04-08T15:07:32.248Z,1.60
2023-04-08T15:09:59.363Z,1.50
2023-04-08T15:12:26.412Z,1.80
2023-04-08T15:14:53.446Z,1.50
2023-04-08T15:17:20.484Z,1.70
2023-04-08T15:19:47.496Z,1.50
2023-04-08T15:22:14.518Z,1.70
2023-04-08T15:24:42.927Z,1.60
2023-04-08T15:27:10.690Z,1.50
2023-04-08T15:29:37.660Z,1.50
2023-04-08T15:32:04.571Z,1.70
2023-04-08T15:34:31.559Z,1.50
2023-04-08T15:36:58.648Z,1.70
2023-04-08T15:39:26.196Z,1.60
2023-04-08T15:41:53.481Z,1.60
2023-04-08T15:44:20.748Z,1.90
2023-04-08T15:46:47.770Z,1.80
2023-04-08T15:49:14.860Z,1.80
2023-04-08T15:51:44.666Z,2.10
2023-04-08T15:54:11.989Z,1.40
2023-04-08T15:56:39.067Z,1.60
2023-04-08T15:59:08.007Z,1.80
2023-04-08T16:01:35.035Z,1.80
2023-04-08T16:04:02.166Z,1.70
2023-04-08T16:06:29.163Z,1.80
2023-04-08T16:08:56.919Z,1.80
2023-04-08T16:11:27.652Z,1.50
2023-04-08T16:13:54.601Z,1.50
2023-04-08T16:16:21.731Z,1.50
2023-04-08T16:18:49.082Z,1.90
2023-04-08T16:21:16.195Z,1.60
2023-04-08T16:23:43.156Z,1.60
2023-04-08T16:26:10.251Z,1.60
2023-04-08T16:28:39.276Z,1.70
2023-04-08T16:31:07.175Z,1.60
2023-04-08T16:33:34.258Z,1.50
2023-04-08T16:36:01.756Z,1.70
2023-04-08T16:38:28.677Z,1.60
2023-04-08T16:41:01.688Z,1.60
2023-04-08T16:43:29.501Z,1.80
2023-04-08T16:45:56.395Z,1.70
2023-04-08T16:48:23.670Z,1.90
2023-04-08T16:50:50.640Z,1.70
2023-04-08T16:53:17.666Z,1.80
2023-04-08T16:55:44.629Z,1.70
2023-04-08T16:58:11.781Z,2.10
2023-04-08T17:00:39.168Z,1.70
2023-04-08T17:03:06.198Z,1.90
2023-04-08T17:05:33.717Z,1.70
2023-04-08T17:08:01.057Z,1.90
2023-04-08T17:10:28.114Z,1.70
2023-04-08T17:12:55.184Z,1.50
2023-04-08T17:15:22.222Z,1.80
2023-04-08T17:17:49.327Z,1.70
2023-04-08T17:20:16.587Z,1.80
2023-04-08T17:22:43.666Z,1.60
2023-04-08T17:25:11.046Z,1.80
2023-04-08T17:27:37.987Z,1.50
2023-04-08T17:30:05.461Z,1.60
2023-04-08T17:32:33.046Z,1.80
2023-04-08T17:35:00.417Z,1.70
2023-04-08T17:37:27.432Z,1.90
2023-04-08T17:39:54.716Z,1.70
2023-04-08T17:42:23.448Z,1.80
2023-04-08T17:44:50.422Z,1.60
2023-04-08T17:47:17.486Z,1.70
2023-04-08T17:49:44.421Z,1.60
2023-04-08T17:52:11.307Z,1.70
2023-04-08T17:54:38.384Z,2.00
2023-04-08T17:57:05.391Z,1.60
2023-04-08T17:59:32.332Z,1.60
2023-04-08T18:01:59.307Z,1.80
2023-04-08T18:04:26.398Z,2.00
2023-04-08T18:06:53.799Z,2.10
2023-04-08T18:09:20.741Z,2.10
2023-04-08T18:11:47.710Z,2.30
2023-04-08T18:14:14.740Z,2.30
2023-04-08T18:16:41.820Z,2.40
2023-04-08T18:19:08.899Z,2.60
2023-04-08T18:21:35.867Z,2.40
2023-04-08T18:24:02.986Z,2.30
2023-04-08T18:26:31.495Z,2.70
2023-04-08T18:28:58.429Z,2.90
2023-04-08T18:31:25.709Z,2.60
2023-04-08T18:33:53.006Z,2.50
2023-04-08T18:36:20.269Z,2.60
2023-04-08T18:38:48.773Z,2.60
2023-04-08T18:41:16.521Z,2.20
2023-04-08T18:43:43.478Z,2.40
2023-04-08T18:46:10.569Z,2.20
2023-04-08T18:48:37.702Z,2.20
2023-04-08T18:51:04.657Z,2.00
2023-04-08T18:53:31.617Z,2.50
2023-04-08T18:55:58.645Z,2.10
2023-04-08T18:58:25.860Z,2.30
2023-04-08T19:00:53.240Z,2.20
2023-04-08T19:03:20.256Z,2.10
2023-04-08T19:05:47.421Z,2.20
2023-04-08T19:08:14.396Z,2.40
2023-04-08T19:10:41.373Z,2.20
2023-04-08T19:13:08.597Z,2.60
2023-04-08T19:15:35.697Z,2.50
2023-04-08T19:18:02.783Z,2.50
2023-04-08T19:20:29.839Z,2.20
2023-04-08T19:22:57.446Z,2.30
2023-04-08T19:25:24.452Z,2.40
2023-04-08T19:27:51.738Z,2.40
2023-04-08T19:30:18.785Z,2.50
2023-04-08T19:32:47.047Z,2.20
2023-04-08T19:35:14.097Z,2.40
2023-04-08T19:37:41.895Z,2.70
2023-04-08T19:40:09.749Z,2.70
2023-04-08T19:42:36.965Z,2.50
2023-04-08T19:45:05.422Z,2.90
2023-04-08T19:47:33.213Z,2.70
2023-04-08T19:50:00.536Z,2.70
2023-04-08T19:52:27.580Z,2.50
2023-04-08T19:54:54.627Z,2.60
2023-04-08T19:57:21.783Z,2.60
2023-04-08T19:59:49.043Z,2.30
2023-04-08T20:02:16.489Z,2.40
2023-04-08T20:04:45.120Z,2.30
2023-04-08T20:07:12.901Z,2.40
2023-04-08T20:09:39.926Z,2.50
2023-04-08T20:12:07.015Z,2.40
2023-04-08T20:14:35.982Z,2.40
2023-04-08T20:17:03.292Z,2.60
2023-04-08T20:19:30.887Z,2.30
2023-04-08T20:21:57.922Z,2.00
2023-04-08T20:24:25.090Z,2.10
2023-04-08T20:26:52.747Z,2.40
2023-04-08T20:29:19.963Z,2.30
2023-04-08T20:31:47.486Z,2.00
2023-04-08T20:34:14.682Z,2.30
2023-04-08T20:36:41.564Z,2.20
2023-04-08T20:39:11.909Z,1.90
2023-04-08T20:41:39.002Z,2.10
2023-04-08T20:44:10.741Z,2.10
2023-04-08T20:46:38.405Z,1.90
2023-04-08T20:49:06.280Z,2.30
2023-04-08T20:51:34.025Z,2.00
2023-04-08T20:54:01.027Z,2.40
2023-04-08T20:56:28.231Z,2.20
2023-04-08T20:58:56.872Z,2.50
2023-04-08T21:01:26.189Z,1.90
2023-04-08T21:03:53.305Z,2.00
2023-04-08T21:06:21.297Z,2.10
2023-04-08T21:08:49.529Z,2.20
2023-04-08T21:11:17.159Z,1.90
2023-04-08T21:13:45.524Z,2.20
2023-04-08T21:16:14.356Z,2.40
2023-04-08T21:18:41.347Z,2.20
2023-04-08T21:21:11.424Z,2.40
2023-04-08T21:23:38.378Z,2.40
2023-04-08T21:26:12.614Z,2.10
2023-04-08T21:28:40.851Z,2.20
2023-04-08T21:31:11.872Z,2.30
2023-04-08T21:33:39.899Z,2.00
2023-04-08T21:36:07.846Z,2.10
2023-04-08T21:38:35.263Z,2.30
2023-04-08T21:41:02.398Z,2.20
2023-04-08T21:43:29.333Z,2.10
2023-04-08T21:45:56.368Z,2.30
2023-04-08T21:48:23.626Z,2.20
2023-04-08T21:50:50.577Z,2.60
2023-04-08T21:53:17.592Z,2.40
2023-04-08T21:55:44.495Z,2.70
2023-04-08T21:58:12.675Z,2.90
2023-04-08T22:00:40.219Z,2.80
2023-04-08T22:03:07.753Z,2.20
2023-04-08T22:05:35.115Z,2.40
2023-04-08T22:08:02.372Z,2.70
2023-04-08T22:10:29.405Z,3.30
2023-04-08T22:12:56.418Z,3.10
2023-04-08T22:15:23.497Z,3.20
2023-04-08T22:17:50.570Z,3.50
2023-04-08T22:20:17.784Z,3.00
2023-04-08T22:22:44.769Z,2.80
2023-04-08T22:25:12.321Z,2.80
2023-04-08T22:27:41.560Z,3.00
2023-04-08T22:30:09.357Z,3.00
2023-04-08T22:32:36.414Z,3.20
2023-04-08T22:35:03.521Z,2.70
2023-04-08T22:37:32.117Z,2.50
2023-04-08T22:40:03.895Z,2.60
2023-04-08T22:42:31.037Z,2.90
2023-04-08T22:44:58.097Z,2.60
2023-04-08T22:47:25.156Z,2.80
2023-04-08T22:49:52.192Z,2.80
2023-04-08T22:52:19.231Z,2.90
2023-04-08T22:54:46.315Z,2.90
2023-04-08T22:57:13.316Z,3.00
2023-04-08T22:59:40.896Z,2.10
2023-04-08T23:02:08.132Z,1.70
2023-04-08T23:04:35.510Z,2.10
2023-04-08T23:07:02.742Z,2.00
2023-04-08T23:09:29.780Z,2.30
2023-04-08T23:11:57.577Z,2.00
2023-04-08T23:14:24.910Z,2.10
2023-04-08T23:16:51.952Z,2.20
2023-04-08T23:19:20.737Z,2.30
2023-04-08T23:21:47.818Z,1.80
2023-04-08T23:24:15.448Z,2.00
2023-04-08T23:26:42.353Z,2.10
2023-04-08T23:29:09.334Z,2.00
2023-04-08T23:31:36.630Z,2.10
2023-04-08T23:34:04.077Z,2.00
2023-04-08T23:36:31.559Z,1.90
2023-04-08T23:38:58.558Z,2.20
2023-04-08T23:41:25.807Z,2.00
2023-04-08T23:43:53.680Z,2.10
2023-04-08T23:46:20.924Z,2.10
2023-04-08T23:48:48.313Z,2.00
2023-04-08T23:51:15.743Z,1.40
2023-04-08T23:53:42.779Z,1.40
2023-04-08T23:56:10.649Z,1.30
2023-04-08T23:58:37.790Z,1.80
